createdAt,value
2023-01-07T00:00:38.712Z,14.10
2023-01-07T00:01:38.600Z,16.00
2023-01-07T00:02:38.601Z,15.00
2023-01-07T00:03:38.608Z,14.30
2023-01-07T00:04:38.587Z,19.40
2023-01-07T00:05:38.567Z,17.40
2023-01-07T00:06:38.530Z,17.40
2023-01-07T00:07:38.560Z,17.30
2023-01-07T00:08:38.508Z,18.90
2023-01-07T00:09:38.499Z,16.20
2023-01-07T00:10:38.539Z,16.90
2023-01-07T00:11:38.511Z,23.30
2023-01-07T00:12:38.488Z,20.60
2023-01-07T00:13:38.476Z,22.30
2023-01-07T00:14:38.442Z,19.30
2023-01-07T00:15:38.503Z,24.50
2023-01-07T00:16:38.420Z,22.80
2023-01-07T00:17:38.406Z,27.50
2023-01-07T00:18:38.393Z,21.80
2023-01-07T00:19:38.397Z,25.80
2023-01-07T00:20:38.419Z,19.90
2023-01-07T00:21:38.371Z,22.80
2023-01-07T00:22:38.356Z,21.70
2023-01-07T00:23:38.346Z,24.70
2023-01-07T00:24:38.348Z,21.80
2023-01-07T00:25:38.338Z,28.30
2023-01-07T00:26:38.339Z,25.80
2023-01-07T00:27:38.304Z,28.00
2023-01-07T00:28:38.304Z,31.00
2023-01-07T00:29:38.273Z,28.10
2023-01-07T00:30:38.298Z,33.00
2023-01-07T00:31:38.344Z,26.40
2023-01-07T00:32:38.246Z,24.00
2023-01-07T00:33:38.226Z,24.70
2023-01-07T00:34:38.227Z,22.60
2023-01-07T00:35:38.237Z,23.50
2023-01-07T00:36:38.194Z,25.80
2023-01-07T00:37:38.177Z,23.90
2023-01-07T00:38:38.173Z,27.60
2023-01-07T00:39:38.581Z,27.80
2023-01-07T00:40:38.169Z,29.30
2023-01-07T00:41:38.156Z,26.30
2023-01-07T00:42:38.165Z,22.40
2023-01-07T00:43:38.134Z,26.60
2023-01-07T00:44:38.187Z,24.50
2023-01-07T00:45:38.117Z,27.70
2023-01-07T00:46:38.137Z,26.70
2023-01-07T00:47:38.078Z,27.80
2023-01-07T00:48:38.094Z,28.60
2023-01-07T00:49:38.060Z,26.30
2023-01-07T00:50:38.063Z,28.60
2023-01-07T00:51:38.043Z,27.00
2023-01-07T00:52:38.047Z,22.80
2023-01-07T00:53:38.005Z,28.60
2023-01-07T00:54:38.028Z,29.40
2023-01-07T00:55:38.022Z,31.80
2023-01-07T00:56:37.983Z,33.90
2023-01-07T00:57:37.962Z,34.90
2023-01-07T00:58:44.511Z,27.80
2023-01-07T00:59:37.940Z,34.00
2023-01-07T01:00:37.980Z,27.60
2023-01-07T01:01:38.027Z,29.00
2023-01-07T01:02:37.935Z,32.70
2023-01-07T01:03:37.898Z,29.30
2023-01-07T01:04:37.881Z,28.60
2023-01-07T01:05:37.897Z,32.40
2023-01-07T01:06:37.868Z,34.60
2023-01-07T01:07:37.846Z,31.70
2023-01-07T01:08:37.834Z,31.20
2023-01-07T01:09:37.833Z,34.20
2023-01-07T01:10:37.826Z,41.60
2023-01-07T01:11:37.814Z,29.90
2023-01-07T01:12:37.789Z,37.00
2023-01-07T01:13:37.788Z,36.20
2023-01-07T01:14:37.773Z,43.90
2023-01-07T01:15:37.770Z,36.80
2023-01-07T01:16:37.828Z,31.70
2023-01-07T01:17:37.743Z,36.20
2023-01-07T01:18:37.737Z,30.20
2023-01-07T01:19:37.721Z,35.80
2023-01-07T01:20:37.708Z,44.00
2023-01-07T01:21:37.774Z,37.90
2023-01-07T01:22:37.676Z,33.60
2023-01-07T01:23:37.666Z,34.40
2023-01-07T01:24:37.683Z,41.60
2023-01-07T01:25:37.645Z,40.90
2023-01-07T01:26:37.656Z,42.30
2023-01-07T01:27:37.627Z,59.70
2023-01-07T01:28:37.614Z,41.40
2023-01-07T01:29:37.597Z,39.80
2023-01-07T01:30:37.601Z,39.50
2023-01-07T01:31:37.645Z,33.40
2023-01-07T01:32:37.572Z,38.00
2023-01-07T01:33:37.553Z,41.60
2023-01-07T01:34:37.538Z,46.90
2023-01-07T01:35:37.538Z,41.90
2023-01-07T01:36:37.607Z,43.90
2023-01-07T01:37:37.519Z,43.50
2023-01-07T01:38:37.508Z,43.10
2023-01-07T01:39:37.505Z,49.20
2023-01-07T01:40:37.487Z,52.30
2023-01-07T01:41:37.497Z,52.20
2023-01-07T01:42:37.459Z,54.10
2023-01-07T01:43:37.449Z,48.40
2023-01-07T01:44:37.450Z,48.70
2023-01-07T01:45:37.432Z,51.60
2023-01-07T01:46:37.449Z,56.00
2023-01-07T01:47:37.405Z,59.50
2023-01-07T01:48:37.397Z,60.00
2023-01-07T01:49:37.384Z,55.30
2023-01-07T01:50:37.371Z,53.40
2023-01-07T01:51:37.378Z,55.60
2023-01-07T01:52:37.350Z,58.80
2023-01-07T01:53:37.343Z,60.30
2023-01-07T01:54:37.331Z,56.70
2023-01-07T01:55:37.316Z,57.90
2023-01-07T01:56:37.324Z,56.40
2023-01-07T01:57:37.298Z,45.50
2023-01-07T01:58:37.288Z,56.90
2023-01-07T01:59:37.268Z,55.20
2023-01-07T02:00:37.324Z,58.00
2023-01-07T02:01:37.535Z,56.70
2023-01-07T02:02:37.320Z,56.10
2023-01-07T02:03:37.224Z,55.70
2023-01-07T02:04:37.215Z,62.30
2023-01-07T02:05:39.822Z,59.70
2023-01-07T02:06:37.211Z,59.30
2023-01-07T02:07:37.184Z,59.40
2023-01-07T02:08:37.173Z,63.30
2023-01-07T02:09:37.162Z,60.30
2023-01-07T02:10:37.144Z,63.10
2023-01-07T02:11:37.170Z,74.50
2023-01-07T02:12:37.141Z,56.10
2023-01-07T02:13:37.137Z,62.90
2023-01-07T02:14:37.116Z,59.30
2023-01-07T02:15:37.109Z,66.80
2023-01-07T02:16:37.197Z,65.30
2023-01-07T02:17:37.072Z,65.30
2023-01-07T02:18:37.058Z,55.00
2023-01-07T02:19:37.058Z,57.10
2023-01-07T02:20:37.033Z,58.90
2023-01-07T02:21:37.049Z,71.90
2023-01-07T02:22:37.015Z,57.20
2023-01-07T02:23:37.008Z,61.20
2023-01-07T02:24:36.991Z,75.20
2023-01-07T02:25:36.980Z,75.20
2023-01-07T02:26:36.993Z,72.10
2023-01-07T02:27:36.967Z,65.00
2023-01-07T02:28:36.950Z,70.40
2023-01-07T02:29:36.935Z,56.40
2023-01-07T02:30:36.938Z,66.60
2023-01-07T02:31:36.994Z,66.50
2023-01-07T02:32:36.902Z,73.80
2023-01-07T02:33:36.892Z,66.00
2023-01-07T02:34:36.888Z,67.90
2023-01-07T02:35:36.878Z,73.20
2023-01-07T02:36:36.877Z,63.80
2023-01-07T02:37:36.857Z,69.30
2023-01-07T02:38:36.845Z,70.40
2023-01-07T02:39:36.825Z,64.30
2023-01-07T02:40:36.820Z,65.40
2023-01-07T02:41:36.821Z,76.90
2023-01-07T02:42:36.802Z,67.00
2023-01-07T02:43:36.787Z,76.30
2023-01-07T02:44:36.768Z,83.90
2023-01-07T02:45:36.821Z,62.20
2023-01-07T02:46:36.772Z,74.00
2023-01-07T02:47:36.749Z,64.70
2023-01-07T02:48:36.732Z,69.90
2023-01-07T02:49:36.730Z,61.90
2023-01-07T02:50:36.719Z,61.40
2023-01-07T02:51:36.714Z,70.30
2023-01-07T02:52:36.686Z,63.20
2023-01-07T02:53:36.675Z,78.70
2023-01-07T02:54:36.657Z,69.80
2023-01-07T02:55:36.647Z,69.60
2023-01-07T02:56:36.656Z,74.00
2023-01-07T02:57:36.642Z,67.70
2023-01-07T02:58:36.619Z,69.40
2023-01-07T02:59:36.618Z,71.40
2023-01-07T03:00:36.673Z,70.40
2023-01-07T03:01:36.738Z,72.40
2023-01-07T03:02:36.571Z,71.80
2023-01-07T03:03:36.565Z,67.20
2023-01-07T03:04:36.549Z,73.10
2023-01-07T03:05:36.536Z,70.00
2023-01-07T03:06:36.553Z,71.50
2023-01-07T03:07:36.516Z,74.00
2023-01-07T03:08:36.527Z,86.10
2023-01-07T03:09:36.503Z,79.60
2023-01-07T03:10:36.491Z,98.70
2023-01-07T03:11:36.488Z,92.60
2023-01-07T03:12:36.478Z,77.20
2023-01-07T03:13:36.465Z,85.50
2023-01-07T03:14:36.447Z,76.90
2023-01-07T03:15:36.443Z,73.40
2023-01-07T03:16:36.538Z,77.20
2023-01-07T03:17:36.406Z,79.40
2023-01-07T03:18:36.386Z,80.80
2023-01-07T03:19:36.395Z,67.10
2023-01-07T03:20:36.372Z,74.50
2023-01-07T03:21:36.379Z,72.20
2023-01-07T03:22:36.353Z,68.00
2023-01-07T03:23:36.341Z,70.40
2023-01-07T03:24:36.323Z,69.30
2023-01-07T03:25:36.313Z,72.80
2023-01-07T03:26:36.327Z,69.80
2023-01-07T03:27:36.298Z,70.70
2023-01-07T03:28:36.287Z,78.10
2023-01-07T03:29:36.275Z,64.40
2023-01-07T03:30:36.261Z,79.10
2023-01-07T03:31:36.321Z,76.50
2023-01-07T03:32:36.250Z,86.10
2023-01-07T03:33:36.238Z,78.10
2023-01-07T03:34:36.215Z,69.50
2023-01-07T03:35:36.207Z,76.70
2023-01-07T03:36:36.220Z,80.30
2023-01-07T03:37:36.186Z,69.70
2023-01-07T03:38:36.174Z,71.40
2023-01-07T03:39:36.171Z,71.70
2023-01-07T03:40:36.149Z,76.50
2023-01-07T03:41:36.155Z,68.20
2023-01-07T03:42:36.129Z,78.90
2023-01-07T03:43:36.111Z,64.50
2023-01-07T03:44:36.110Z,61.80
2023-01-07T03:45:36.161Z,72.20
2023-01-07T03:46:36.103Z,76.60
2023-01-07T03:47:36.070Z,70.90
2023-01-07T03:48:36.079Z,79.30
2023-01-07T03:49:36.912Z,71.00
2023-01-07T03:50:36.055Z,76.90
2023-01-07T03:51:36.058Z,75.00
2023-01-07T03:52:36.025Z,70.50
2023-01-07T03:53:36.005Z,69.90
2023-01-07T03:54:36.021Z,79.50
2023-01-07T03:55:36.014Z,75.60
2023-01-07T03:56:35.978Z,80.90
2023-01-07T03:57:35.973Z,69.20
2023-01-07T03:58:35.952Z,67.30
2023-01-07T03:59:35.960Z,75.10
2023-01-07T04:00:35.926Z,70.10
2023-01-07T04:01:36.096Z,75.20
2023-01-07T04:02:35.922Z,74.90
2023-01-07T04:03:35.898Z,155.90
2023-01-07T04:04:36.002Z,84.60
2023-01-07T04:05:35.872Z,72.10
2023-01-07T04:06:35.872Z,65.70
2023-01-07T04:07:35.882Z,86.30
2023-01-07T04:08:35.839Z,77.60
2023-01-07T04:09:35.832Z,86.70
2023-01-07T04:10:35.832Z,79.60
2023-01-07T04:11:35.801Z,78.90
2023-01-07T04:12:35.805Z,89.70
2023-01-07T04:13:35.791Z,140.20
2023-01-07T04:14:35.781Z,95.20
2023-01-07T04:15:35.777Z,121.00
2023-01-07T04:16:35.785Z,62.90
2023-01-07T04:17:35.773Z,102.00
2023-01-07T04:18:35.755Z,114.70
2023-01-07T04:19:35.715Z,97.30
2023-01-07T04:20:35.726Z,152.40
2023-01-07T04:21:35.694Z,118.90
2023-01-07T04:22:35.700Z,102.10
2023-01-07T04:23:35.676Z,91.70
2023-01-07T04:24:35.652Z,89.40
2023-01-07T04:25:35.645Z,128.70
2023-01-07T04:26:35.649Z,158.90
2023-01-07T04:27:35.696Z,146.40
2023-01-07T04:28:35.613Z,194.00
2023-01-07T04:29:35.601Z,127.20
2023-01-07T04:30:35.656Z,81.70
2023-01-07T04:31:35.597Z,195.00
2023-01-07T04:32:35.578Z,94.30
2023-01-07T04:33:35.555Z,107.00
2023-01-07T04:34:35.546Z,92.50
2023-01-07T04:35:35.537Z,78.60
2023-01-07T04:36:35.563Z,92.90
2023-01-07T04:37:35.725Z,107.20
2023-01-07T04:38:35.521Z,176.30
2023-01-07T04:39:35.546Z,118.00
2023-01-07T04:40:35.500Z,90.40
2023-01-07T04:41:35.514Z,81.60
2023-01-07T04:42:35.519Z,86.80
2023-01-07T04:43:35.450Z,94.20
2023-01-07T04:44:35.437Z,68.00
2023-01-07T04:45:35.429Z,72.70
2023-01-07T04:46:35.444Z,70.90
2023-01-07T04:47:36.001Z,74.20
2023-01-07T04:48:35.402Z,104.40
2023-01-07T04:49:35.385Z,81.20
2023-01-07T04:50:35.369Z,178.80
2023-01-07T04:51:35.381Z,80.60
2023-01-07T04:52:35.365Z,79.40
2023-01-07T04:53:35.349Z,84.60
2023-01-07T04:54:35.324Z,67.10
2023-01-07T04:55:35.324Z,68.30
2023-01-07T04:56:35.304Z,83.00
2023-01-07T04:57:35.647Z,99.20
2023-01-07T04:58:35.287Z,86.90
2023-01-07T04:59:35.272Z,92.90
2023-01-07T05:00:35.264Z,114.70
2023-01-07T05:01:35.412Z,106.40
2023-01-07T05:02:35.248Z,81.80
2023-01-07T05:03:35.259Z,77.60
2023-01-07T05:04:35.279Z,90.50
2023-01-07T05:05:35.206Z,90.30
2023-01-07T05:06:35.191Z,59.40
2023-01-07T05:07:35.198Z,73.70
2023-01-07T05:08:35.179Z,89.60
2023-01-07T05:09:35.166Z,73.90
2023-01-07T05:10:35.170Z,75.20
2023-01-07T05:11:35.133Z,61.80
2023-01-07T05:12:35.154Z,68.00
2023-01-07T05:13:35.127Z,66.90
2023-01-07T05:14:35.112Z,85.60
2023-01-07T05:15:35.099Z,62.60
2023-01-07T05:16:35.151Z,70.10
2023-01-07T05:17:35.114Z,94.00
2023-01-07T05:18:35.073Z,87.30
2023-01-07T05:19:35.057Z,99.00
2023-01-07T05:20:35.043Z,80.10
2023-01-07T05:21:35.037Z,79.40
2023-01-07T05:22:35.039Z,85.60
2023-01-07T05:23:35.014Z,77.20
2023-01-07T05:24:34.997Z,65.70
2023-01-07T05:25:34.991Z,67.40
2023-01-07T05:26:34.975Z,81.80
2023-01-07T05:27:34.982Z,74.80
2023-01-07T05:28:34.965Z,60.60
2023-01-07T05:29:34.941Z,63.20
2023-01-07T05:30:34.948Z,75.80
2023-01-07T05:31:34.925Z,97.30
2023-01-07T05:32:34.935Z,52.60
2023-01-07T05:33:34.902Z,61.10
2023-01-07T05:34:34.887Z,69.00
2023-01-07T05:35:34.888Z,89.80
2023-01-07T05:36:34.877Z,69.80
2023-01-07T05:37:34.872Z,92.00
2023-01-07T05:38:34.851Z,144.60
2023-01-07T05:39:34.863Z,66.80
2023-01-07T05:40:34.826Z,97.00
2023-01-07T05:41:34.826Z,72.10
2023-01-07T05:42:34.831Z,102.10
2023-01-07T05:43:34.787Z,82.00
2023-01-07T05:44:34.784Z,54.10
2023-01-07T05:45:34.782Z,60.60
2023-01-07T05:46:34.824Z,61.20
2023-01-07T05:47:34.758Z,56.20
2023-01-07T05:48:34.739Z,65.10
2023-01-07T05:49:34.732Z,69.20
2023-01-07T05:50:34.715Z,56.10
2023-01-07T05:51:34.709Z,53.40
2023-01-07T05:52:34.700Z,89.20
2023-01-07T05:53:34.690Z,79.70
2023-01-07T05:54:34.671Z,75.70
2023-01-07T05:55:34.653Z,79.70
2023-01-07T05:56:34.654Z,106.30
2023-01-07T05:57:34.656Z,80.00
2023-01-07T05:58:34.621Z,65.70
2023-01-07T05:59:34.623Z,85.40
2023-01-07T06:00:34.606Z,59.20
2023-01-07T06:01:34.599Z,76.10
2023-01-07T06:02:34.601Z,65.60
2023-01-07T06:03:34.690Z,71.50
2023-01-07T06:04:34.602Z,70.90
2023-01-07T06:05:34.563Z,72.50
2023-01-07T06:06:34.543Z,52.50
2023-01-07T06:07:34.550Z,59.50
2023-01-07T06:08:34.518Z,63.90
2023-01-07T06:09:34.510Z,69.90
2023-01-07T06:10:34.492Z,88.30
2023-01-07T06:11:34.479Z,74.20
2023-01-07T06:12:34.493Z,95.80
2023-01-07T06:13:34.465Z,98.10
2023-01-07T06:14:34.451Z,61.10
2023-01-07T06:15:34.497Z,58.90
2023-01-07T06:16:34.428Z,63.20
2023-01-07T06:17:34.436Z,77.60
2023-01-07T06:18:34.406Z,57.60
2023-01-07T06:19:34.396Z,63.10
2023-01-07T06:20:34.398Z,71.70
2023-01-07T06:21:34.379Z,89.80
2023-01-07T06:22:34.383Z,68.20
2023-01-07T06:23:34.352Z,118.60
2023-01-07T06:24:34.365Z,102.30
2023-01-07T06:25:34.332Z,117.20
2023-01-07T06:26:34.328Z,116.20
2023-01-07T06:27:34.336Z,83.90
2023-01-07T06:28:34.310Z,82.30
2023-01-07T06:29:34.279Z,153.10
2023-01-07T06:30:34.278Z,126.00
2023-01-07T06:31:34.378Z,78.70
2023-01-07T06:32:34.271Z,87.50
2023-01-07T06:33:34.249Z,72.90
2023-01-07T06:34:34.233Z,79.90
2023-01-07T06:35:34.224Z,93.50
2023-01-07T06:36:34.212Z,65.90
2023-01-07T06:37:34.237Z,73.70
2023-01-07T06:38:34.188Z,91.50
2023-01-07T06:39:34.174Z,87.80
2023-01-07T06:40:34.177Z,139.10
2023-01-07T06:41:34.154Z,50.10
2023-01-07T06:42:34.146Z,87.30
2023-01-07T06:43:34.155Z,68.40
2023-01-07T06:44:34.134Z,90.20
2023-01-07T06:45:34.117Z,165.10
2023-01-07T06:46:34.134Z,74.00
2023-01-07T06:47:34.118Z,63.40
2023-01-07T06:48:34.097Z,78.00
2023-01-07T06:49:34.063Z,79.50
2023-01-07T06:50:34.052Z,100.20
2023-01-07T06:51:34.054Z,82.80
2023-01-07T06:52:34.039Z,86.90
2023-01-07T06:53:34.039Z,148.60
2023-01-07T06:54:34.017Z,69.10
2023-01-07T06:55:33.997Z,80.40
2023-01-07T06:56:33.987Z,55.30
2023-01-07T06:57:33.975Z,76.90
2023-01-07T06:58:33.982Z,77.30
2023-01-07T06:59:40.522Z,91.10
2023-01-07T07:00:33.945Z,110.90
2023-01-07T07:01:34.086Z,61.90
2023-01-07T07:02:34.105Z,84.80
2023-01-07T07:03:33.924Z,71.70
2023-01-07T07:04:33.917Z,83.90
2023-01-07T07:05:33.894Z,86.80
2023-01-07T07:06:33.895Z,88.70
2023-01-07T07:07:33.872Z,85.40
2023-01-07T07:08:33.872Z,115.70
2023-01-07T07:09:33.844Z,112.20
2023-01-07T07:10:33.843Z,138.30
2023-01-07T07:11:33.842Z,136.70
2023-01-07T07:12:33.816Z,66.40
2023-01-07T07:13:33.828Z,88.90
2023-01-07T07:14:33.798Z,118.80
2023-01-07T07:15:33.782Z,95.10
2023-01-07T07:16:33.788Z,113.40
2023-01-07T07:17:33.763Z,109.20
2023-01-07T07:18:33.758Z,59.70
2023-01-07T07:19:33.777Z,66.60
2023-01-07T07:20:33.723Z,93.80
2023-01-07T07:21:33.707Z,86.50
2023-01-07T07:22:33.715Z,113.20
2023-01-07T07:23:33.719Z,113.20
2023-01-07T07:24:33.675Z,110.60
2023-01-07T07:25:33.663Z,121.70
2023-01-07T07:26:33.665Z,98.50
2023-01-07T07:27:33.651Z,138.20
2023-01-07T07:28:33.651Z,140.20
2023-01-07T07:29:33.629Z,108.10
2023-01-07T07:30:45.898Z,267.30
2023-01-07T07:31:33.629Z,73.20
2023-01-07T07:32:33.620Z,110.30
2023-01-07T07:33:33.604Z,85.10
2023-01-07T07:34:35.758Z,94.90
2023-01-07T07:35:33.565Z,71.40
2023-01-07T07:36:33.551Z,75.00
2023-01-07T07:37:33.532Z,96.80
2023-01-07T07:38:33.541Z,86.90
2023-01-07T07:39:33.534Z,94.70
2023-01-07T07:40:33.504Z,119.90
2023-01-07T07:41:33.495Z,100.60
2023-01-07T07:43:09.377Z,152.00
2023-01-07T07:43:33.488Z,87.60
2023-01-07T07:44:33.480Z,77.40
2023-01-07T07:45:33.439Z,61.40
2023-01-07T07:46:33.501Z,80.70
2023-01-07T07:47:33.418Z,65.40
2023-01-07T07:48:33.432Z,75.20
2023-01-07T07:49:33.399Z,74.80
2023-01-07T07:50:33.386Z,80.70
2023-01-07T07:51:33.373Z,97.90
2023-01-07T07:52:33.373Z,144.90
2023-01-07T07:53:33.414Z,116.60
2023-01-07T07:54:33.379Z,98.30
2023-01-07T07:55:33.327Z,130.70
2023-01-07T07:56:33.328Z,111.30
2023-01-07T07:57:33.324Z,88.70
2023-01-07T07:58:33.317Z,135.40
2023-01-07T07:59:33.311Z,99.20
2023-01-07T08:00:33.272Z,91.10
2023-01-07T08:01:35.279Z,73.70
2023-01-07T08:02:33.250Z,71.60
2023-01-07T08:03:33.438Z,91.20
2023-01-07T08:04:33.220Z,99.80
2023-01-07T08:05:33.238Z,106.00
2023-01-07T08:06:33.216Z,142.20
2023-01-07T08:07:34.247Z,83.80
2023-01-07T08:08:33.184Z,60.50
2023-01-07T08:09:33.218Z,65.60
2023-01-07T08:10:33.166Z,60.80
2023-01-07T08:11:33.164Z,83.50
2023-01-07T08:12:33.150Z,64.30
2023-01-07T08:13:33.143Z,76.80
2023-01-07T08:14:33.117Z,54.20
2023-01-07T08:15:33.109Z,62.50
2023-01-07T08:16:33.180Z,59.10
2023-01-07T08:17:33.087Z,64.80
2023-01-07T08:18:33.102Z,75.00
2023-01-07T08:19:33.056Z,67.40
2023-01-07T08:20:33.062Z,108.40
2023-01-07T08:21:33.062Z,65.80
2023-01-07T08:22:33.022Z,57.00
2023-01-07T08:23:33.031Z,67.60
2023-01-07T08:24:32.991Z,66.10
2023-01-07T08:25:32.995Z,56.30
2023-01-07T08:26:32.977Z,63.40
2023-01-07T08:27:32.967Z,48.60
2023-01-07T08:28:32.981Z,50.30
2023-01-07T08:29:32.944Z,52.20
2023-01-07T08:30:32.935Z,62.10
2023-01-07T08:31:32.958Z,45.40
2023-01-07T08:32:32.923Z,59.80
2023-01-07T08:33:32.915Z,61.40
2023-01-07T08:34:32.890Z,70.00
2023-01-07T08:35:32.879Z,55.10
2023-01-07T08:36:32.868Z,54.70
2023-01-07T08:37:32.887Z,51.10
2023-01-07T08:38:32.855Z,50.10
2023-01-07T08:39:32.834Z,43.80
2023-01-07T08:40:32.827Z,52.60
2023-01-07T08:41:32.819Z,55.40
2023-01-07T08:42:32.793Z,53.40
2023-01-07T08:43:32.805Z,49.80
2023-01-07T08:44:32.771Z,52.50
2023-01-07T08:45:32.790Z,48.50
2023-01-07T08:46:32.797Z,52.40
2023-01-07T08:47:32.756Z,45.70
2023-01-07T08:48:32.743Z,40.60
2023-01-07T08:49:32.749Z,47.30
2023-01-07T08:50:32.698Z,53.40
2023-01-07T08:51:32.717Z,37.00
2023-01-07T08:52:32.681Z,40.70
2023-01-07T08:53:32.693Z,37.40
2023-01-07T08:54:32.664Z,38.80
2023-01-07T08:55:32.662Z,40.60
2023-01-07T08:56:32.628Z,42.80
2023-01-07T08:57:32.618Z,31.10
2023-01-07T08:58:32.633Z,39.50
2023-01-07T08:59:32.601Z,37.30
2023-01-07T09:00:32.618Z,36.90
2023-01-07T09:01:32.756Z,31.00
2023-01-07T09:02:32.589Z,34.20
2023-01-07T09:03:32.567Z,32.60
2023-01-07T09:04:32.576Z,31.70
2023-01-07T09:05:35.112Z,26.20
2023-01-07T09:06:32.522Z,27.20
2023-01-07T09:07:32.513Z,28.30
2023-01-07T09:08:32.517Z,29.30
2023-01-07T09:09:32.507Z,29.40
2023-01-07T09:10:32.473Z,27.80
2023-01-07T09:11:32.462Z,25.80
2023-01-07T09:12:32.476Z,24.40
2023-01-07T09:13:32.456Z,24.10
2023-01-07T09:14:32.426Z,21.10
2023-01-07T09:15:32.426Z,21.80
2023-01-07T09:16:32.456Z,21.90
2023-01-07T09:17:32.395Z,20.60
2023-01-07T09:18:32.398Z,20.30
2023-01-07T09:19:32.391Z,23.40
2023-01-07T09:20:32.358Z,19.80
2023-01-07T09:21:32.347Z,19.10
2023-01-07T09:22:32.350Z,18.40
2023-01-07T09:23:32.351Z,15.90
2023-01-07T09:24:32.332Z,17.50
2023-01-07T09:25:32.306Z,17.60
2023-01-07T09:26:32.306Z,13.60
2023-01-07T09:27:32.296Z,16.20
2023-01-07T09:28:32.287Z,18.40
2023-01-07T09:29:32.273Z,13.60
2023-01-07T09:30:32.263Z,17.10
2023-01-07T09:31:32.355Z,17.30
2023-01-07T09:32:32.235Z,15.80
2023-01-07T09:33:32.228Z,11.70
2023-01-07T09:34:32.221Z,13.50
2023-01-07T09:35:32.209Z,15.70
2023-01-07T09:36:32.189Z,13.10
2023-01-07T09:37:32.180Z,12.80
2023-01-07T09:38:32.187Z,11.90
2023-01-07T09:39:32.156Z,13.00
2023-01-07T09:40:32.148Z,13.00
2023-01-07T09:41:32.131Z,11.60
2023-01-07T09:42:33.887Z,11.40
2023-01-07T09:44:00.127Z,9.40
2023-01-07T09:44:32.112Z,9.60
2023-01-07T09:45:32.141Z,10.20
2023-01-07T09:46:32.067Z,11.80
2023-01-07T09:47:32.063Z,10.70
2023-01-07T09:48:32.145Z,8.70
2023-01-07T09:49:32.038Z,10.40
2023-01-07T09:50:32.025Z,10.30
2023-01-07T09:51:32.019Z,8.70
2023-01-07T09:52:32.005Z,8.40
2023-01-07T09:53:32.032Z,9.20
2023-01-07T09:54:31.982Z,8.70
2023-01-07T09:55:31.983Z,8.70
2023-01-07T09:56:31.954Z,7.80
2023-01-07T09:57:31.946Z,7.00
2023-01-07T09:58:31.957Z,6.80
2023-01-07T09:59:31.927Z,7.40
2023-01-07T10:00:31.940Z,7.10
2023-01-07T10:01:31.934Z,6.60
2023-01-07T10:02:31.954Z,7.10
2023-01-07T10:03:31.940Z,7.60
2023-01-07T10:04:31.867Z,8.30
2023-01-07T10:05:31.862Z,5.60
2023-01-07T10:06:43.112Z,5.80
2023-01-07T10:07:31.848Z,5.70
2023-01-07T10:08:32.526Z,6.40
2023-01-07T10:09:31.839Z,6.60
2023-01-07T10:10:31.810Z,6.60
2023-01-07T10:11:31.789Z,5.00
2023-01-07T10:12:31.791Z,4.70
2023-01-07T10:13:31.798Z,4.50
2023-01-07T10:14:31.752Z,7.90
2023-01-07T10:15:31.751Z,4.60
2023-01-07T10:16:31.936Z,5.10
2023-01-07T10:17:31.724Z,5.70
2023-01-07T10:18:31.725Z,6.20
2023-01-07T10:19:31.699Z,4.00
2023-01-07T10:20:31.690Z,4.70
2023-01-07T10:21:31.676Z,4.50
2023-01-07T10:22:31.664Z,4.30
2023-01-07T10:23:31.683Z,4.30
2023-01-07T10:24:31.651Z,4.50
2023-01-07T10:25:31.632Z,5.70
2023-01-07T10:26:31.644Z,4.90
2023-01-07T10:27:31.611Z,5.00
2023-01-07T10:28:31.616Z,4.90
2023-01-07T10:29:31.603Z,6.50
2023-01-07T10:30:31.575Z,4.40
2023-01-07T10:31:31.581Z,4.20
2023-01-07T10:32:31.566Z,4.50
2023-01-07T10:33:31.560Z,7.00
2023-01-07T10:34:31.525Z,5.10
2023-01-07T10:35:31.522Z,5.60
2023-01-07T10:36:31.511Z,5.20
2023-01-07T10:37:31.498Z,3.90
2023-01-07T10:38:31.505Z,5.00
2023-01-07T10:39:31.471Z,3.80
2023-01-07T10:40:31.469Z,4.50
2023-01-07T10:41:31.443Z,4.20
2023-01-07T10:42:31.469Z,5.00
2023-01-07T10:43:31.450Z,3.50
2023-01-07T10:44:31.420Z,3.60
2023-01-07T10:45:31.457Z,4.60
2023-01-07T10:46:31.391Z,3.80
2023-01-07T10:47:31.389Z,3.40
2023-01-07T10:48:31.394Z,4.40
2023-01-07T10:49:31.372Z,3.30
2023-01-07T10:50:31.367Z,4.60
2023-01-07T10:51:31.343Z,6.10
2023-01-07T10:52:31.338Z,4.40
2023-01-07T10:53:31.340Z,3.90
2023-01-07T10:54:31.309Z,3.30
2023-01-07T10:55:31.312Z,3.70
2023-01-07T10:56:31.294Z,5.60
2023-01-07T10:57:31.295Z,3.30
2023-01-07T10:58:31.268Z,3.40
2023-01-07T10:59:31.244Z,3.90
2023-01-07T11:00:31.256Z,2.80
2023-01-07T11:01:31.381Z,4.20
2023-01-07T11:02:31.403Z,3.50
2023-01-07T11:03:31.221Z,7.70
2023-01-07T11:04:31.226Z,5.30
2023-01-07T11:05:31.189Z,3.90
2023-01-07T11:06:31.169Z,3.10
2023-01-07T11:07:31.184Z,4.50
2023-01-07T11:08:31.144Z,3.30
2023-01-07T11:09:31.152Z,3.60
2023-01-07T11:10:31.151Z,4.10
2023-01-07T11:11:31.116Z,2.80
2023-01-07T11:12:31.099Z,3.00
2023-01-07T11:13:31.105Z,3.00
2023-01-07T11:14:31.099Z,2.70
2023-01-07T11:15:31.067Z,3.10
2023-01-07T11:16:31.169Z,3.10
2023-01-07T11:17:31.069Z,2.30
2023-01-07T11:18:31.075Z,3.30
2023-01-07T11:19:31.055Z,3.00
2023-01-07T11:20:31.026Z,3.20
2023-01-07T11:21:43.339Z,2.60
2023-01-07T11:22:31.064Z,2.20
2023-01-07T11:23:31.029Z,2.40
2023-01-07T11:24:31.032Z,6.30
2023-01-07T11:25:30.971Z,3.00
2023-01-07T11:26:30.968Z,4.60
2023-01-07T11:27:30.953Z,3.60
2023-01-07T11:28:30.935Z,2.70
2023-01-07T11:29:30.928Z,2.80
2023-01-07T11:30:30.932Z,3.10
2023-01-07T11:31:30.919Z,3.00
2023-01-07T11:32:30.920Z,2.80
2023-01-07T11:34:03.294Z,4.30
2023-01-07T11:34:30.896Z,2.80
2023-01-07T11:35:30.848Z,2.40
2023-01-07T11:36:30.847Z,2.90
2023-01-07T11:37:30.851Z,2.60
2023-01-07T11:38:30.824Z,4.80
2023-01-07T11:39:30.809Z,2.60
2023-01-07T11:40:30.818Z,2.40
2023-01-07T11:41:30.792Z,2.70
2023-01-07T11:42:30.775Z,2.20
2023-01-07T11:43:30.795Z,2.80
2023-01-07T11:44:30.776Z,3.00
2023-01-07T11:45:30.824Z,3.90
2023-01-07T11:46:30.790Z,5.10
2023-01-07T11:47:30.733Z,2.40
2023-01-07T11:48:30.713Z,3.90
2023-01-07T11:49:30.753Z,2.40
2023-01-07T11:50:30.689Z,4.50
2023-01-07T11:51:30.682Z,2.30
2023-01-07T11:52:30.666Z,2.50
2023-01-07T11:53:30.648Z,3.70
2023-01-07T11:54:30.688Z,1.80
2023-01-07T11:55:30.651Z,3.30
2023-01-07T11:56:30.619Z,3.10
2023-01-07T11:57:30.651Z,2.30
2023-01-07T11:58:31.219Z,4.10
2023-01-07T11:59:30.623Z,2.00
2023-01-07T12:00:30.590Z,3.30
2023-01-07T12:01:30.580Z,2.70
2023-01-07T12:02:30.572Z,1.80
2023-01-07T12:03:30.602Z,2.00
2023-01-07T12:04:30.537Z,1.80
2023-01-07T12:05:30.516Z,3.10
2023-01-07T12:06:30.520Z,2.80
2023-01-07T12:07:30.491Z,3.10
2023-01-07T12:08:30.480Z,2.90
2023-01-07T12:09:30.507Z,2.30
2023-01-07T12:10:30.472Z,2.70
2023-01-07T12:11:30.450Z,3.30
2023-01-07T12:12:30.466Z,1.80
2023-01-07T12:13:30.431Z,2.50
2023-01-07T12:14:30.428Z,2.80
2023-01-07T12:15:30.440Z,3.90
2023-01-07T12:16:30.449Z,2.00
2023-01-07T12:17:30.392Z,2.00
2023-01-07T12:18:30.376Z,3.00
2023-01-07T12:19:30.398Z,3.80
2023-01-07T12:20:30.348Z,3.20
2023-01-07T12:21:30.359Z,2.00
2023-01-07T12:22:30.325Z,2.60
2023-01-07T12:23:30.323Z,2.20
2023-01-07T12:24:30.328Z,2.30
2023-01-07T12:25:30.298Z,1.90
2023-01-07T12:26:30.316Z,2.90
2023-01-07T12:27:30.297Z,2.30
2023-01-07T12:28:30.267Z,2.70
2023-01-07T12:29:30.341Z,3.70
2023-01-07T12:30:30.244Z,2.60
2023-01-07T12:31:30.269Z,2.80
2023-01-07T12:32:30.238Z,2.30
2023-01-07T12:33:30.212Z,2.50
2023-01-07T12:34:30.227Z,3.50
2023-01-07T12:35:30.234Z,2.60
2023-01-07T12:36:30.174Z,1.90
2023-01-07T12:37:30.191Z,2.00
2023-01-07T12:38:30.151Z,2.60
2023-01-07T12:39:30.159Z,2.00
2023-01-07T12:40:30.134Z,3.20
2023-01-07T12:41:30.129Z,1.80
2023-01-07T12:42:30.124Z,2.40
2023-01-07T12:43:30.117Z,2.70
2023-01-07T12:44:30.103Z,2.10
2023-01-07T12:45:30.072Z,2.20
2023-01-07T12:46:30.152Z,1.90
2023-01-07T12:47:35.131Z,3.10
2023-01-07T12:48:30.050Z,3.10
2023-01-07T12:49:30.056Z,2.90
2023-01-07T12:50:30.058Z,3.70
2023-01-07T12:51:30.013Z,2.40
2023-01-07T12:52:29.991Z,2.60
2023-01-07T12:53:30.023Z,3.90
2023-01-07T12:54:30.002Z,2.60
2023-01-07T12:55:29.961Z,2.90
2023-01-07T12:56:29.946Z,3.70